sensor_id;sensor_type;location;lat;lon;timestamp;P1;durP1;ratioP1;P2;durP2;ratioP2
68225;SDS011;55045;49.410;11.030;2023-05-29T00:01:52;6.43;;;3.20;;
68225;SDS011;55045;49.410;11.030;2023-05-29T00:04:56;5.55;;;3.40;;
68225;SDS011;55045;49.410;11.030;2023-05-29T00:08:00;7.25;;;3.42;;
68225;SDS011;55045;49.410;11.030;2023-05-29T00:11:04;6.55;;;3.42;;
68225;SDS011;55045;49.410;11.030;2023-05-29T00:14:08;5.28;;;3.17;;
68225;SDS011;55045;49.410;11.030;2023-05-29T00:17:15;7.53;;;3.45;;
68225;SDS011;55045;49.410;11.030;2023-05-29T00:20:18;6.88;;;2.83;;
68225;SDS011;55045;49.410;11.030;2023-05-29T00:23:22;5.43;;;3.40;;
68225;SDS011;55045;49.410;11.030;2023-05-29T00:26:26;6.68;;;3.08;;
68225;SDS011;55045;49.410;11.030;2023-05-29T00:29:30;6.03;;;2.83;;
68225;SDS011;55045;49.410;11.030;2023-05-29T00:32:36;5.13;;;3.17;;
68225;SDS011;55045;49.410;11.030;2023-05-29T00:35:39;8.38;;;3.30;;
68225;SDS011;55045;49.410;11.030;2023-05-29T00:38:46;5.65;;;3.03;;
68225;SDS011;55045;49.410;11.030;2023-05-29T00:41:49;4.13;;;2.88;;
68225;SDS011;55045;49.410;11.030;2023-05-29T00:44:53;4.50;;;3.05;;
68225;SDS011;55045;49.410;11.030;2023-05-29T00:47:56;5.68;;;3.55;;
68225;SDS011;55045;49.410;11.030;2023-05-29T00:51:01;4.50;;;3.05;;
68225;SDS011;55045;49.410;11.030;2023-05-29T00:54:06;4.88;;;3.13;;
68225;SDS011;55045;49.410;11.030;2023-05-29T00:57:10;7.32;;;3.40;;
68225;SDS011;55045;49.410;11.030;2023-05-29T01:00:15;5.78;;;3.35;;
68225;SDS011;55045;49.410;11.030;2023-05-29T01:03:22;6.10;;;3.40;;
68225;SDS011;55045;49.410;11.030;2023-05-29T01:06:26;6.25;;;3.72;;
68225;SDS011;55045;49.410;11.030;2023-05-29T01:09:30;7.45;;;3.55;;
68225;SDS011;55045;49.410;11.030;2023-05-29T01:12:37;4.63;;;2.80;;
68225;SDS011;55045;49.410;11.030;2023-05-29T01:15:44;6.90;;;3.60;;
68225;SDS011;55045;49.410;11.030;2023-05-29T01:18:54;5.57;;;3.33;;
68225;SDS011;55045;49.410;11.030;2023-05-29T01:22:05;6.78;;;3.67;;
68225;SDS011;55045;49.410;11.030;2023-05-29T01:25:18;5.53;;;3.53;;
68225;SDS011;55045;49.410;11.030;2023-05-29T01:31:29;6.40;;;3.47;;
68225;SDS011;55045;49.410;11.030;2023-05-29T01:34:34;6.03;;;3.45;;
68225;SDS011;55045;49.410;11.030;2023-05-29T01:37:37;7.93;;;3.55;;
68225;SDS011;55045;49.410;11.030;2023-05-29T01:40:40;6.72;;;2.85;;
68225;SDS011;55045;49.410;11.030;2023-05-29T01:43:47;8.52;;;3.25;;
68225;SDS011;55045;49.410;11.030;2023-05-29T01:46:52;7.03;;;3.30;;
68225;SDS011;55045;49.410;11.030;2023-05-29T01:49:56;4.65;;;3.10;;
68225;SDS011;55045;49.410;11.030;2023-05-29T01:53:02;5.80;;;3.40;;
68225;SDS011;55045;49.410;11.030;2023-05-29T01:56:06;6.05;;;3.85;;
68225;SDS011;55045;49.410;11.030;2023-05-29T01:59:14;8.30;;;3.72;;
68225;SDS011;55045;49.410;11.030;2023-05-29T02:02:18;6.57;;;4.10;;
68225;SDS011;55045;49.410;11.030;2023-05-29T02:05:24;6.60;;;3.55;;
68225;SDS011;55045;49.410;11.030;2023-05-29T02:08:27;7.50;;;3.28;;
68225;SDS011;55045;49.410;11.030;2023-05-29T02:11:31;6.65;;;3.83;;
68225;SDS011;55045;49.410;11.030;2023-05-29T02:14:35;8.65;;;4.03;;
68225;SDS011;55045;49.410;11.030;2023-05-29T02:17:39;6.07;;;3.50;;
68225;SDS011;55045;49.410;11.030;2023-05-29T02:20:43;6.70;;;3.30;;
68225;SDS011;55045;49.410;11.030;2023-05-29T02:23:52;6.05;;;3.75;;
68225;SDS011;55045;49.410;11.030;2023-05-29T02:26:55;7.07;;;3.83;;
68225;SDS011;55045;49.410;11.030;2023-05-29T02:29:59;7.53;;;4.00;;
68225;SDS011;55045;49.410;11.030;2023-05-29T02:33:03;6.32;;;3.60;;
68225;SDS011;55045;49.410;11.030;2023-05-29T02:36:08;9.20;;;4.13;;
68225;SDS011;55045;49.410;11.030;2023-05-29T02:39:13;6.82;;;3.78;;
68225;SDS011;55045;49.410;11.030;2023-05-29T02:42:16;6.47;;;3.70;;
68225;SDS011;55045;49.410;11.030;2023-05-29T02:45:22;9.65;;;4.53;;
68225;SDS011;55045;49.410;11.030;2023-05-29T02:48:25;5.50;;;3.90;;
68225;SDS011;55045;49.410;11.030;2023-05-29T02:51:29;6.50;;;3.70;;
68225;SDS011;55045;49.410;11.030;2023-05-29T02:54:34;9.15;;;3.88;;
68225;SDS011;55045;49.410;11.030;2023-05-29T02:57:38;7.82;;;3.95;;
68225;SDS011;55045;49.410;11.030;2023-05-29T03:00:43;5.90;;;4.13;;
68225;SDS011;55045;49.410;11.030;2023-05-29T03:03:47;8.75;;;3.90;;
68225;SDS011;55045;49.410;11.030;2023-05-29T03:06:51;9.20;;;3.97;;
68225;SDS011;55045;49.410;11.030;2023-05-29T03:09:56;18.65;;;4.03;;
68225;SDS011;55045;49.410;11.030;2023-05-29T03:13:01;5.60;;;3.55;;
68225;SDS011;55045;49.410;11.030;2023-05-29T03:16:07;8.52;;;4.00;;
68225;SDS011;55045;49.410;11.030;2023-05-29T03:19:12;7.07;;;3.53;;
68225;SDS011;55045;49.410;11.030;2023-05-29T03:22:15;7.05;;;4.20;;
68225;SDS011;55045;49.410;11.030;2023-05-29T03:25:19;9.80;;;3.70;;
68225;SDS011;55045;49.410;11.030;2023-05-29T03:28:22;8.30;;;4.03;;
68225;SDS011;55045;49.410;11.030;2023-05-29T03:34:27;7.82;;;4.20;;
68225;SDS011;55045;49.410;11.030;2023-05-29T03:37:32;12.52;;;4.00;;
68225;SDS011;55045;49.410;11.030;2023-05-29T03:40:35;9.13;;;3.92;;
68225;SDS011;55045;49.410;11.030;2023-05-29T03:43:39;8.40;;;4.10;;
68225;SDS011;55045;49.410;11.030;2023-05-29T03:46:43;7.18;;;3.75;;
68225;SDS011;55045;49.410;11.030;2023-05-29T03:49:48;6.70;;;4.00;;
68225;SDS011;55045;49.410;11.030;2023-05-29T03:52:52;7.22;;;4.30;;
68225;SDS011;55045;49.410;11.030;2023-05-29T03:55:57;6.13;;;3.88;;
68225;SDS011;55045;49.410;11.030;2023-05-29T03:59:07;7.82;;;4.22;;
68225;SDS011;55045;49.410;11.030;2023-05-29T04:02:10;7.10;;;4.03;;
68225;SDS011;55045;49.410;11.030;2023-05-29T04:05:18;8.68;;;3.92;;
68225;SDS011;55045;49.410;11.030;2023-05-29T04:08:21;8.90;;;4.40;;
68225;SDS011;55045;49.410;11.030;2023-05-29T04:11:24;5.78;;;3.33;;
68225;SDS011;55045;49.410;11.030;2023-05-29T04:14:29;7.05;;;4.03;;
68225;SDS011;55045;49.410;11.030;2023-05-29T04:17:32;7.00;;;4.03;;
68225;SDS011;55045;49.410;11.030;2023-05-29T04:20:37;9.63;;;4.28;;
68225;SDS011;55045;49.410;11.030;2023-05-29T04:23:40;9.18;;;4.25;;
68225;SDS011;55045;49.410;11.030;2023-05-29T04:26:44;7.93;;;4.13;;
68225;SDS011;55045;49.410;11.030;2023-05-29T04:29:47;5.68;;;3.65;;
68225;SDS011;55045;49.410;11.030;2023-05-29T04:32:51;6.85;;;3.85;;
68225;SDS011;55045;49.410;11.030;2023-05-29T04:35:58;5.82;;;3.63;;
68225;SDS011;55045;49.410;11.030;2023-05-29T04:39:02;6.70;;;3.83;;
68225;SDS011;55045;49.410;11.030;2023-05-29T04:42:06;6.53;;;3.75;;
68225;SDS011;55045;49.410;11.030;2023-05-29T04:45:10;5.88;;;3.40;;
68225;SDS011;55045;49.410;11.030;2023-05-29T04:48:14;6.40;;;4.18;;
68225;SDS011;55045;49.410;11.030;2023-05-29T04:51:19;8.43;;;3.92;;
68225;SDS011;55045;49.410;11.030;2023-05-29T04:54:23;6.15;;;3.05;;
68225;SDS011;55045;49.410;11.030;2023-05-29T04:57:29;9.13;;;4.05;;
68225;SDS011;55045;49.410;11.030;2023-05-29T05:00:33;7.93;;;4.22;;
68225;SDS011;55045;49.410;11.030;2023-05-29T05:03:36;11.13;;;4.63;;
68225;SDS011;55045;49.410;11.030;2023-05-29T05:06:41;9.18;;;4.88;;
68225;SDS011;55045;49.410;11.030;2023-05-29T05:09:46;9.65;;;5.13;;
68225;SDS011;55045;49.410;11.030;2023-05-29T05:12:55;8.32;;;4.80;;
68225;SDS011;55045;49.410;11.030;2023-05-29T05:15:58;9.52;;;4.30;;
68225;SDS011;55045;49.410;11.030;2023-05-29T05:19:03;6.85;;;4.10;;
68225;SDS011;55045;49.410;11.030;2023-05-29T05:22:11;10.65;;;4.05;;
68225;SDS011;55045;49.410;11.030;2023-05-29T05:25:14;8.38;;;4.25;;
68225;SDS011;55045;49.410;11.030;2023-05-29T05:28:20;7.63;;;3.67;;
68225;SDS011;55045;49.410;11.030;2023-05-29T05:31:23;5.22;;;3.40;;
68225;SDS011;55045;49.410;11.030;2023-05-29T05:34:28;8.70;;;3.83;;
68225;SDS011;55045;49.410;11.030;2023-05-29T05:37:33;6.35;;;3.72;;
68225;SDS011;55045;49.410;11.030;2023-05-29T05:40:37;8.13;;;4.07;;
68225;SDS011;55045;49.410;11.030;2023-05-29T05:43:52;8.75;;;3.40;;
68225;SDS011;55045;49.410;11.030;2023-05-29T05:47:05;5.88;;;2.97;;
68225;SDS011;55045;49.410;11.030;2023-05-29T05:50:10;8.18;;;3.65;;
68225;SDS011;55045;49.410;11.030;2023-05-29T05:53:15;5.63;;;3.38;;
68225;SDS011;55045;49.410;11.030;2023-05-29T05:56:18;5.85;;;3.35;;
68225;SDS011;55045;49.410;11.030;2023-05-29T05:59:22;4.93;;;3.10;;
68225;SDS011;55045;49.410;11.030;2023-05-29T06:02:27;6.05;;;3.50;;
68225;SDS011;55045;49.410;11.030;2023-05-29T06:05:31;4.30;;;2.95;;
68225;SDS011;55045;49.410;11.030;2023-05-29T06:08:37;6.55;;;3.63;;
68225;SDS011;55045;49.410;11.030;2023-05-29T06:11:42;6.70;;;2.97;;
68225;SDS011;55045;49.410;11.030;2023-05-29T06:14:46;5.15;;;3.17;;
68225;SDS011;55045;49.410;11.030;2023-05-29T06:17:50;4.07;;;2.63;;
68225;SDS011;55045;49.410;11.030;2023-05-29T06:20:54;5.13;;;2.90;;
68225;SDS011;55045;49.410;11.030;2023-05-29T06:24:01;6.13;;;3.10;;
68225;SDS011;55045;49.410;11.030;2023-05-29T06:27:04;5.35;;;2.78;;
68225;SDS011;55045;49.410;11.030;2023-05-29T06:30:08;5.68;;;3.03;;
68225;SDS011;55045;49.410;11.030;2023-05-29T06:33:13;5.60;;;2.80;;
68225;SDS011;55045;49.410;11.030;2023-05-29T06:36:16;4.60;;;2.90;;
68225;SDS011;55045;49.410;11.030;2023-05-29T06:39:21;13.18;;;3.17;;
68225;SDS011;55045;49.410;11.030;2023-05-29T06:42:24;9.48;;;3.20;;
68225;SDS011;55045;49.410;11.030;2023-05-29T06:45:32;8.07;;;3.05;;
68225;SDS011;55045;49.410;11.030;2023-05-29T06:48:36;4.22;;;3.47;;
68225;SDS011;55045;49.410;11.030;2023-05-29T06:51:39;4.13;;;2.90;;
68225;SDS011;55045;49.410;11.030;2023-05-29T06:54:58;3.10;;;2.60;;
68225;SDS011;55045;49.410;11.030;2023-05-29T06:58:03;4.65;;;3.13;;
68225;SDS011;55045;49.410;11.030;2023-05-29T07:01:06;4.68;;;3.10;;
68225;SDS011;55045;49.410;11.030;2023-05-29T07:04:31;5.28;;;2.83;;
68225;SDS011;55045;49.410;11.030;2023-05-29T07:07:34;7.65;;;3.35;;
68225;SDS011;55045;49.410;11.030;2023-05-29T07:10:39;6.22;;;2.72;;
68225;SDS011;55045;49.410;11.030;2023-05-29T07:13:44;4.55;;;2.70;;
68225;SDS011;55045;49.410;11.030;2023-05-29T07:16:48;6.50;;;2.88;;
68225;SDS011;55045;49.410;11.030;2023-05-29T07:19:52;3.85;;;3.10;;
68225;SDS011;55045;49.410;11.030;2023-05-29T07:22:56;4.40;;;3.05;;
68225;SDS011;55045;49.410;11.030;2023-05-29T07:26:00;3.55;;;2.97;;
68225;SDS011;55045;49.410;11.030;2023-05-29T07:29:07;3.00;;;2.60;;
68225;SDS011;55045;49.410;11.030;2023-05-29T07:32:11;4.07;;;2.60;;
68225;SDS011;55045;49.410;11.030;2023-05-29T07:35:18;5.28;;;3.28;;
68225;SDS011;55045;49.410;11.030;2023-05-29T07:38:22;4.32;;;2.90;;
68225;SDS011;55045;49.410;11.030;2023-05-29T07:41:27;6.15;;;3.10;;
68225;SDS011;55045;49.410;11.030;2023-05-29T07:44:30;5.03;;;3.10;;
68225;SDS011;55045;49.410;11.030;2023-05-29T07:47:33;3.55;;;2.67;;
68225;SDS011;55045;49.410;11.030;2023-05-29T07:50:40;4.18;;;3.00;;
68225;SDS011;55045;49.410;11.030;2023-05-29T07:53:43;6.20;;;2.72;;
68225;SDS011;55045;49.410;11.030;2023-05-29T07:56:49;3.47;;;2.55;;
68225;SDS011;55045;49.410;11.030;2023-05-29T07:59:53;5.53;;;3.13;;
68225;SDS011;55045;49.410;11.030;2023-05-29T08:02:57;4.72;;;2.70;;
68225;SDS011;55045;49.410;11.030;2023-05-29T08:06:00;4.03;;;2.70;;
68225;SDS011;55045;49.410;11.030;2023-05-29T08:09:05;5.28;;;2.95;;
68225;SDS011;55045;49.410;11.030;2023-05-29T08:12:09;3.63;;;2.83;;
68225;SDS011;55045;49.410;11.030;2023-05-29T08:15:13;3.47;;;2.83;;
68225;SDS011;55045;49.410;11.030;2023-05-29T08:18:17;4.82;;;2.70;;
68225;SDS011;55045;49.410;11.030;2023-05-29T08:21:21;5.03;;;2.97;;
68225;SDS011;55045;49.410;11.030;2023-05-29T08:24:24;6.95;;;2.90;;
68225;SDS011;55045;49.410;11.030;2023-05-29T08:27:29;6.10;;;2.47;;
68225;SDS011;55045;49.410;11.030;2023-05-29T08:30:32;4.47;;;2.70;;
68225;SDS011;55045;49.410;11.030;2023-05-29T08:33:36;4.20;;;2.70;;
68225;SDS011;55045;49.410;11.030;2023-05-29T08:36:39;3.25;;;2.40;;
68225;SDS011;55045;49.410;11.030;2023-05-29T08:39:43;4.45;;;2.78;;
68225;SDS011;55045;49.410;11.030;2023-05-29T08:42:49;3.80;;;2.53;;
68225;SDS011;55045;49.410;11.030;2023-05-29T08:45:59;3.50;;;2.40;;
68225;SDS011;55045;49.410;11.030;2023-05-29T08:49:04;6.38;;;2.58;;
68225;SDS011;55045;49.410;11.030;2023-05-29T08:52:09;3.60;;;2.65;;
68225;SDS011;55045;49.410;11.030;2023-05-29T08:55:14;2.80;;;2.55;;
68225;SDS011;55045;49.410;11.030;2023-05-29T08:58:20;5.22;;;2.88;;
68225;SDS011;55045;49.410;11.030;2023-05-29T09:01:23;4.57;;;2.55;;
68225;SDS011;55045;49.410;11.030;2023-05-29T09:04:28;2.85;;;2.50;;
68225;SDS011;55045;49.410;11.030;2023-05-29T09:07:32;4.18;;;2.60;;
68225;SDS011;55045;49.410;11.030;2023-05-29T09:10:35;4.88;;;3.00;;
68225;SDS011;55045;49.410;11.030;2023-05-29T09:13:55;5.63;;;3.05;;
68225;SDS011;55045;49.410;11.030;2023-05-29T09:17:00;3.20;;;2.53;;
68225;SDS011;55045;49.410;11.030;2023-05-29T09:20:03;3.80;;;2.30;;
68225;SDS011;55045;49.410;11.030;2023-05-29T09:23:20;4.78;;;2.40;;
68225;SDS011;55045;49.410;11.030;2023-05-29T09:26:23;5.15;;;2.35;;
68225;SDS011;55045;49.410;11.030;2023-05-29T09:29:28;3.30;;;2.35;;
68225;SDS011;55045;49.410;11.030;2023-05-29T09:34:39;8.48;;;2.70;;
68225;SDS011;55045;49.410;11.030;2023-05-29T09:37:42;2.95;;;2.60;;
68225;SDS011;55045;49.410;11.030;2023-05-29T09:40:46;3.85;;;2.45;;
68225;SDS011;55045;49.410;11.030;2023-05-29T09:43:49;5.45;;;2.78;;
68225;SDS011;55045;49.410;11.030;2023-05-29T09:46:56;5.85;;;2.67;;
68225;SDS011;55045;49.410;11.030;2023-05-29T09:50:02;3.47;;;2.40;;
68225;SDS011;55045;49.410;11.030;2023-05-29T09:53:07;3.58;;;2.42;;
68225;SDS011;55045;49.410;11.030;2023-05-29T09:56:21;4.20;;;2.92;;
68225;SDS011;55045;49.410;11.030;2023-05-29T09:59:26;5.15;;;2.90;;
68225;SDS011;55045;49.410;11.030;2023-05-29T10:02:32;3.25;;;2.30;;
68225;SDS011;55045;49.410;11.030;2023-05-29T10:05:38;2.75;;;2.10;;
68225;SDS011;55045;49.410;11.030;2023-05-29T10:08:44;3.40;;;2.47;;
68225;SDS011;55045;49.410;11.030;2023-05-29T10:11:51;4.38;;;2.30;;
68225;SDS011;55045;49.410;11.030;2023-05-29T10:14:59;3.30;;;2.45;;
68225;SDS011;55045;49.410;11.030;2023-05-29T10:18:05;8.85;;;2.85;;
68225;SDS011;55045;49.410;11.030;2023-05-29T10:21:18;6.43;;;3.20;;
68225;SDS011;55045;49.410;11.030;2023-05-29T10:24:23;5.05;;;2.42;;
68225;SDS011;55045;49.410;11.030;2023-05-29T10:27:28;5.10;;;2.65;;
68225;SDS011;55045;49.410;11.030;2023-05-29T10:30:34;4.13;;;2.80;;
68225;SDS011;55045;49.410;11.030;2023-05-29T10:33:48;4.43;;;2.55;;
68225;SDS011;55045;49.410;11.030;2023-05-29T10:37:04;5.18;;;2.47;;
68225;SDS011;55045;49.410;11.030;2023-05-29T10:40:12;6.82;;;2.67;;
68225;SDS011;55045;49.410;11.030;2023-05-29T10:43:29;3.67;;;2.38;;
68225;SDS011;55045;49.410;11.030;2023-05-29T10:50:08;5.70;;;2.53;;
68225;SDS011;55045;49.410;11.030;2023-05-29T10:53:15;3.03;;;2.28;;
68225;SDS011;55045;49.410;11.030;2023-05-29T10:56:21;5.60;;;2.60;;
68225;SDS011;55045;49.410;11.030;2023-05-29T10:59:26;3.65;;;2.47;;
68225;SDS011;55045;49.410;11.030;2023-05-29T11:02:30;3.30;;;2.33;;
68225;SDS011;55045;49.410;11.030;2023-05-29T11:05:33;6.60;;;2.38;;
68225;SDS011;55045;49.410;11.030;2023-05-29T11:08:43;3.88;;;2.47;;
68225;SDS011;55045;49.410;11.030;2023-05-29T11:11:48;3.20;;;2.33;;
68225;SDS011;55045;49.410;11.030;2023-05-29T11:15:15;4.67;;;2.70;;
68225;SDS011;55045;49.410;11.030;2023-05-29T11:18:18;3.00;;;2.63;;
68225;SDS011;55045;49.410;11.030;2023-05-29T11:21:30;3.13;;;2.40;;
68225;SDS011;55045;49.410;11.030;2023-05-29T11:24:38;3.25;;;2.33;;
68225;SDS011;55045;49.410;11.030;2023-05-29T11:27:43;9.63;;;2.33;;
68225;SDS011;55045;49.410;11.030;2023-05-29T11:30:47;5.10;;;2.45;;
68225;SDS011;55045;49.410;11.030;2023-05-29T11:33:51;2.38;;;2.05;;
68225;SDS011;55045;49.410;11.030;2023-05-29T11:36:59;2.50;;;2.10;;
68225;SDS011;55045;49.410;11.030;2023-05-29T11:40:04;3.17;;;2.13;;
68225;SDS011;55045;49.410;11.030;2023-05-29T11:43:09;5.05;;;2.40;;
68225;SDS011;55045;49.410;11.030;2023-05-29T11:46:15;3.92;;;2.63;;
68225;SDS011;55045;49.410;11.030;2023-05-29T11:49:27;4.05;;;2.30;;
68225;SDS011;55045;49.410;11.030;2023-05-29T11:52:31;3.22;;;2.20;;
68225;SDS011;55045;49.410;11.030;2023-05-29T11:55:35;7.85;;;2.63;;
68225;SDS011;55045;49.410;11.030;2023-05-29T11:58:39;2.42;;;2.22;;
68225;SDS011;55045;49.410;11.030;2023-05-29T12:01:43;3.03;;;2.50;;
68225;SDS011;55045;49.410;11.030;2023-05-29T12:04:59;4.13;;;2.22;;
68225;SDS011;55045;49.410;11.030;2023-05-29T12:08:03;2.20;;;1.97;;
68225;SDS011;55045;49.410;11.030;2023-05-29T12:11:08;3.00;;;1.90;;
68225;SDS011;55045;49.410;11.030;2023-05-29T12:14:12;3.22;;;2.33;;
68225;SDS011;55045;49.410;11.030;2023-05-29T12:17:15;2.95;;;1.90;;
68225;SDS011;55045;49.410;11.030;2023-05-29T12:20:18;3.90;;;2.53;;
68225;SDS011;55045;49.410;11.030;2023-05-29T12:23:23;2.63;;;1.88;;
68225;SDS011;55045;49.410;11.030;2023-05-29T12:26:27;2.75;;;2.15;;
68225;SDS011;55045;49.410;11.030;2023-05-29T12:29:34;2.35;;;2.15;;
68225;SDS011;55045;49.410;11.030;2023-05-29T12:32:37;2.80;;;2.13;;
68225;SDS011;55045;49.410;11.030;2023-05-29T12:35:45;2.35;;;2.00;;
68225;SDS011;55045;49.410;11.030;2023-05-29T12:38:49;2.42;;;1.80;;
68225;SDS011;55045;49.410;11.030;2023-05-29T12:41:55;2.20;;;2.00;;
68225;SDS011;55045;49.410;11.030;2023-05-29T12:45:00;2.80;;;2.15;;
68225;SDS011;55045;49.410;11.030;2023-05-29T12:51:09;2.75;;;2.15;;
68225;SDS011;55045;49.410;11.030;2023-05-29T12:54:13;8.38;;;2.17;;
68225;SDS011;55045;49.410;11.030;2023-05-29T12:57:19;3.05;;;2.10;;
68225;SDS011;55045;49.410;11.030;2023-05-29T13:00:23;2.42;;;2.15;;
68225;SDS011;55045;49.410;11.030;2023-05-29T13:03:26;2.05;;;1.70;;
68225;SDS011;55045;49.410;11.030;2023-05-29T13:06:29;3.45;;;1.88;;
68225;SDS011;55045;49.410;11.030;2023-05-29T13:09:33;3.67;;;2.03;;
68225;SDS011;55045;49.410;11.030;2023-05-29T13:12:37;4.85;;;2.30;;
68225;SDS011;55045;49.410;11.030;2023-05-29T13:15:41;4.40;;;2.33;;
68225;SDS011;55045;49.410;11.030;2023-05-29T13:18:44;4.45;;;2.53;;
68225;SDS011;55045;49.410;11.030;2023-05-29T13:21:47;3.10;;;1.90;;
68225;SDS011;55045;49.410;11.030;2023-05-29T13:24:51;3.05;;;1.77;;
68225;SDS011;55045;49.410;11.030;2023-05-29T13:27:56;3.38;;;2.33;;
68225;SDS011;55045;49.410;11.030;2023-05-29T13:30:59;4.45;;;2.60;;
68225;SDS011;55045;49.410;11.030;2023-05-29T13:34:02;2.90;;;2.28;;
68225;SDS011;55045;49.410;11.030;2023-05-29T13:37:06;2.42;;;1.85;;
68225;SDS011;55045;49.410;11.030;2023-05-29T13:40:09;3.08;;;2.40;;
68225;SDS011;55045;49.410;11.030;2023-05-29T13:43:15;3.92;;;2.35;;
68225;SDS011;55045;49.410;11.030;2023-05-29T13:46:18;4.30;;;2.25;;
68225;SDS011;55045;49.410;11.030;2023-05-29T13:49:22;3.58;;;2.33;;
68225;SDS011;55045;49.410;11.030;2023-05-29T13:52:29;5.38;;;2.38;;
68225;SDS011;55045;49.410;11.030;2023-05-29T13:55:32;4.10;;;2.20;;
68225;SDS011;55045;49.410;11.030;2023-05-29T13:58:36;2.65;;;2.13;;
68225;SDS011;55045;49.410;11.030;2023-05-29T14:01:40;3.58;;;1.80;;
68225;SDS011;55045;49.410;11.030;2023-05-29T14:04:43;3.72;;;1.80;;
68225;SDS011;55045;49.410;11.030;2023-05-29T14:07:47;2.95;;;2.28;;
68225;SDS011;55045;49.410;11.030;2023-05-29T14:10:50;2.70;;;2.10;;
68225;SDS011;55045;49.410;11.030;2023-05-29T14:13:55;2.25;;;2.03;;
68225;SDS011;55045;49.410;11.030;2023-05-29T14:16:58;5.78;;;2.05;;
68225;SDS011;55045;49.410;11.030;2023-05-29T14:20:01;5.00;;;2.65;;
68225;SDS011;55045;49.410;11.030;2023-05-29T14:23:06;5.63;;;2.55;;
68225;SDS011;55045;49.410;11.030;2023-05-29T14:26:15;2.40;;;2.10;;
68225;SDS011;55045;49.410;11.030;2023-05-29T14:29:19;3.15;;;2.20;;
68225;SDS011;55045;49.410;11.030;2023-05-29T14:32:23;4.30;;;2.00;;
68225;SDS011;55045;49.410;11.030;2023-05-29T14:35:26;2.78;;;2.20;;
68225;SDS011;55045;49.410;11.030;2023-05-29T14:38:30;3.63;;;2.30;;
68225;SDS011;55045;49.410;11.030;2023-05-29T14:41:33;8.75;;;2.40;;
68225;SDS011;55045;49.410;11.030;2023-05-29T14:44:38;2.75;;;2.00;;
68225;SDS011;55045;49.410;11.030;2023-05-29T14:47:41;3.05;;;2.00;;
68225;SDS011;55045;49.410;11.030;2023-05-29T14:50:45;3.03;;;2.10;;
68225;SDS011;55045;49.410;11.030;2023-05-29T14:53:48;2.42;;;2.22;;
68225;SDS011;55045;49.410;11.030;2023-05-29T14:56:51;3.50;;;2.40;;
68225;SDS011;55045;49.410;11.030;2023-05-29T14:59:56;3.22;;;2.53;;
68225;SDS011;55045;49.410;11.030;2023-05-29T15:02:59;3.47;;;2.30;;
68225;SDS011;55045;49.410;11.030;2023-05-29T15:06:04;3.08;;;2.28;;
68225;SDS011;55045;49.410;11.030;2023-05-29T15:09:09;3.58;;;2.03;;
68225;SDS011;55045;49.410;11.030;2023-05-29T15:12:12;2.22;;;1.92;;
68225;SDS011;55045;49.410;11.030;2023-05-29T15:15:17;6.53;;;2.50;;
68225;SDS011;55045;49.410;11.030;2023-05-29T15:18:20;3.90;;;2.28;;
68225;SDS011;55045;49.410;11.030;2023-05-29T15:21:24;2.20;;;1.90;;
68225;SDS011;55045;49.410;11.030;2023-05-29T15:24:27;3.53;;;1.95;;
68225;SDS011;55045;49.410;11.030;2023-05-29T15:27:30;3.25;;;2.25;;
68225;SDS011;55045;49.410;11.030;2023-05-29T15:34:27;4.93;;;2.35;;
68225;SDS011;55045;49.410;11.030;2023-05-29T15:37:30;2.42;;;1.98;;
68225;SDS011;55045;49.410;11.030;2023-05-29T15:40:33;2.95;;;2.20;;
68225;SDS011;55045;49.410;11.030;2023-05-29T15:43:37;3.58;;;2.10;;
68225;SDS011;55045;49.410;11.030;2023-05-29T15:46:40;4.18;;;2.38;;
68225;SDS011;55045;49.410;11.030;2023-05-29T15:49:45;4.50;;;2.40;;
68225;SDS011;55045;49.410;11.030;2023-05-29T15:52:48;5.53;;;2.45;;
68225;SDS011;55045;49.410;11.030;2023-05-29T15:55:57;3.65;;;2.53;;
68225;SDS011;55045;49.410;11.030;2023-05-29T15:59:00;5.78;;;2.70;;
68225;SDS011;55045;49.410;11.030;2023-05-29T16:02:04;5.63;;;2.10;;
68225;SDS011;55045;49.410;11.030;2023-05-29T16:05:09;2.85;;;2.17;;
68225;SDS011;55045;49.410;11.030;2023-05-29T16:08:13;4.57;;;2.45;;
68225;SDS011;55045;49.410;11.030;2023-05-29T16:11:16;3.95;;;2.42;;
68225;SDS011;55045;49.410;11.030;2023-05-29T16:14:19;2.55;;;2.20;;
68225;SDS011;55045;49.410;11.030;2023-05-29T16:17:23;3.88;;;2.78;;
68225;SDS011;55045;49.410;11.030;2023-05-29T16:20:29;3.65;;;2.45;;
68225;SDS011;55045;49.410;11.030;2023-05-29T16:23:32;2.92;;;2.38;;
68225;SDS011;55045;49.410;11.030;2023-05-29T16:26:35;5.70;;;2.42;;
68225;SDS011;55045;49.410;11.030;2023-05-29T16:29:38;4.03;;;2.40;;
68225;SDS011;55045;49.410;11.030;2023-05-29T16:32:42;3.85;;;2.58;;
68225;SDS011;55045;49.410;11.030;2023-05-29T16:35:46;5.35;;;2.70;;
68225;SDS011;55045;49.410;11.030;2023-05-29T16:38:50;3.15;;;2.15;;
68225;SDS011;55045;49.410;11.030;2023-05-29T16:41:53;4.40;;;3.00;;
68225;SDS011;55045;49.410;11.030;2023-05-29T16:44:57;3.38;;;2.72;;
68225;SDS011;55045;49.410;11.030;2023-05-29T16:48:00;3.97;;;2.60;;
68225;SDS011;55045;49.410;11.030;2023-05-29T16:51:05;3.40;;;2.53;;
68225;SDS011;55045;49.410;11.030;2023-05-29T16:54:08;3.45;;;2.38;;
68225;SDS011;55045;49.410;11.030;2023-05-29T16:57:11;3.65;;;2.97;;
68225;SDS011;55045;49.410;11.030;2023-05-29T17:00:15;4.03;;;2.40;;
68225;SDS011;55045;49.410;11.030;2023-05-29T17:03:18;4.65;;;2.72;;
68225;SDS011;55045;49.410;11.030;2023-05-29T17:06:23;5.53;;;3.08;;
68225;SDS011;55045;49.410;11.030;2023-05-29T17:09:26;6.55;;;2.42;;
68225;SDS011;55045;49.410;11.030;2023-05-29T17:12:30;4.47;;;2.60;;
68225;SDS011;55045;49.410;11.030;2023-05-29T17:15:33;6.90;;;2.60;;
68225;SDS011;55045;49.410;11.030;2023-05-29T17:18:36;4.50;;;2.70;;
68225;SDS011;55045;49.410;11.030;2023-05-29T17:21:42;3.60;;;2.55;;
68225;SDS011;55045;49.410;11.030;2023-05-29T17:24:47;3.25;;;2.70;;
68225;SDS011;55045;49.410;11.030;2023-05-29T17:27:50;5.90;;;2.97;;
68225;SDS011;55045;49.410;11.030;2023-05-29T17:30:53;6.25;;;4.10;;
68225;SDS011;55045;49.410;11.030;2023-05-29T17:33:57;6.10;;;3.35;;
68225;SDS011;55045;49.410;11.030;2023-05-29T17:37:02;3.72;;;2.88;;
68225;SDS011;55045;49.410;11.030;2023-05-29T17:40:06;2.65;;;2.33;;
68225;SDS011;55045;49.410;11.030;2023-05-29T17:43:11;3.92;;;2.53;;
68225;SDS011;55045;49.410;11.030;2023-05-29T17:46:14;5.40;;;2.85;;
68225;SDS011;55045;49.410;11.030;2023-05-29T17:49:20;6.20;;;3.00;;
68225;SDS011;55045;49.410;11.030;2023-05-29T17:52:25;6.50;;;2.67;;
68225;SDS011;55045;49.410;11.030;2023-05-29T17:55:29;4.03;;;2.63;;
68225;SDS011;55045;49.410;11.030;2023-05-29T17:58:32;5.80;;;2.78;;
68225;SDS011;55045;49.410;11.030;2023-05-29T18:01:36;3.38;;;2.58;;
68225;SDS011;55045;49.410;11.030;2023-05-29T18:04:39;4.18;;;2.55;;
68225;SDS011;55045;49.410;11.030;2023-05-29T18:07:44;3.55;;;2.60;;
68225;SDS011;55045;49.410;11.030;2023-05-29T18:10:47;8.88;;;3.20;;
68225;SDS011;55045;49.410;11.030;2023-05-29T18:13:50;4.35;;;2.95;;
68225;SDS011;55045;49.410;11.030;2023-05-29T18:16:54;5.68;;;2.85;;
68225;SDS011;55045;49.410;11.030;2023-05-29T18:19:57;3.63;;;2.80;;
68225;SDS011;55045;49.410;11.030;2023-05-29T18:23:02;4.07;;;3.05;;
68225;SDS011;55045;49.410;11.030;2023-05-29T18:26:05;3.10;;;2.70;;
68225;SDS011;55045;49.410;11.030;2023-05-29T18:29:09;4.70;;;3.10;;
68225;SDS011;55045;49.410;11.030;2023-05-29T18:32:12;3.22;;;2.50;;
68225;SDS011;55045;49.410;11.030;2023-05-29T18:35:16;5.07;;;2.85;;